Time;durP1;ratioP1;P1;durP2;ratioP2;P2;SDS_P1;SDS_P2;PMS_P1;PMS_P2;Temp;Humidity;BMP_temperature;BMP_pressure;BME280_temperature;BME280_humidity;BME280_pressure;Samples;Min_cycle;Max_cycle;Signal;HPM_P1;HPM_P2
2024/01/04 00:03:28;;;;;;;;;;;;;;;8.85;100.00;97963.00;12217425;19;19930;-85
2024/01/04 00:07:29;;;;;;;;;;;;;;;8.83;100.00;97956.97;12226916;19;20013;-86
2024/01/04 00:11:31;;;;;;;;;;;;;;;8.85;100.00;97962.19;12226242;19;19911;-84
2024/01/04 00:15:34;;;;;;;;;;;;;;;8.83;100.00;97956.97;12190000;19;19939;-83
2024/01/04 00:19:35;;;;;;;;;;;;;;;8.82;100.00;97966.31;12221250;19;19914;-85
2024/01/04 00:23:37;;;;;;;;;;;;;;;8.83;100.00;97964.38;12219984;19;20026;-85
2024/01/04 00:27:39;;;;;;;;;;;;;;;8.79;100.00;97961.38;12201870;19;20024;-86
2024/01/04 00:31:41;;;;;;;;;;;;;;;8.82;100.00;97968.25;12216625;19;19914;-86
2024/01/04 00:35:43;;;;;;;;;;;;;;;8.80;100.00;97965.75;12214632;19;19918;-87
2024/01/04 00:39:44;;;;;;;;;;;;;;;8.81;100.00;97981.16;12191096;19;19915;-85
2024/01/04 00:43:46;;;;;;;;;;;;;;;8.80;100.00;97979.50;12209896;19;19923;-85
2024/01/04 00:47:48;;;;;;;;;;;;;;;8.81;100.00;97988.56;12212412;19;19911;-85
2024/01/04 00:51:50;;;;;;;;;;;;;;;8.79;100.00;97980.59;12189605;19;19910;-84
2024/01/04 00:55:52;;;;;;;;;;;;;;;8.84;100.00;97986.09;12205161;19;19915;-82
2024/01/04 00:59:54;;;;;;;;;;;;;;;8.85;100.00;97989.63;12186648;19;19915;-84
2024/01/04 01:03:57;;;;;;;;;;;;;;;8.86;100.00;98000.38;12235656;19;19927;-82
2024/01/04 01:08:01;;;;;;;;;;;;;;;8.88;100.00;97994.56;12254172;19;19917;-82
2024/01/04 01:12:03;;;;;;;;;;;;;;;8.89;100.00;98004.44;12189034;19;19907;-84
2024/01/04 01:16:05;;;;;;;;;;;;;;;8.94;100.00;98004.41;12201533;19;19919;-85
2024/01/04 01:20:07;;;;;;;;;;;;;;;8.99;100.00;98018.13;12197866;19;20053;-84
2024/01/04 01:24:09;;;;;;;;;;;;;;;9.02;100.00;98025.81;12180724;19;19924;-84
2024/01/04 01:28:11;;;;;;;;;;;;;;;9.04;100.00;98031.00;12200887;19;20279;-84
2024/01/04 01:32:15;;;;;;;;;;;;;;;9.08;100.00;98034.84;12203099;19;20546;-85
2024/01/04 01:36:17;;;;;;;;;;;;;;;9.10;100.00;98038.97;12180071;19;19936;-85
2024/01/04 01:40:19;;;;;;;;;;;;;;;9.06;100.00;98048.84;12199614;19;19914;-84
2024/01/04 01:44:20;;;;;;;;;;;;;;;9.09;100.00;98037.31;12196199;19;19910;-85
2024/01/04 01:48:22;;;;;;;;;;;;;;;9.10;100.00;98044.47;12181130;19;19922;-84
2024/01/04 01:52:24;;;;;;;;;;;;;;;9.06;100.00;98040.63;12197348;19;20285;-82
2024/01/04 01:56:26;;;;;;;;;;;;;;;9.12;100.00;98057.91;12198693;19;19918;-83
2024/01/04 02:00:28;;;;;;;;;;;;;;;9.12;100.00;98072.44;12177180;19;19911;-84
2024/01/04 02:04:29;;;;;;;;;;;;;;;9.16;100.00;98074.63;12200628;19;19911;-82
2024/01/04 02:08:31;;;;;;;;;;;;;;;9.10;100.00;98076.59;12198884;19;19940;-84
2024/01/04 02:12:33;;;;;;;;;;;;;;;9.10;100.00;98082.94;12177568;19;19919;-87
2024/01/04 02:16:35;;;;;;;;;;;;;;;9.16;100.00;98086.47;12197081;19;20051;-84
2024/01/04 02:20:37;;;;;;;;;;;;;;;9.16;100.00;98089.22;12197914;19;19914;-84
2024/01/04 02:24:39;;;;;;;;;;;;;;;9.15;100.00;98094.97;12175028;19;20019;-84
2024/01/04 02:28:40;;;;;;;;;;;;;;;9.05;100.00;98101.34;12198734;19;19919;-84
2024/01/04 02:32:42;;;;;;;;;;;;;;;9.07;100.00;98110.13;12214906;19;19915;-84
2024/01/04 02:36:44;;;;;;;;;;;;;;;9.12;100.00;98121.91;12189699;19;19930;-84
2024/01/04 02:40:46;;;;;;;;;;;;;;;9.12;100.00;98127.41;12209496;19;19907;-85
2024/01/04 02:44:48;;;;;;;;;;;;;;;9.13;100.00;98119.97;12202421;19;20269;-84
2024/01/04 02:48:50;;;;;;;;;;;;;;;9.19;100.00;98129.03;12171177;19;19911;-84
2024/01/04 02:52:51;;;;;;;;;;;;;;;9.22;100.00;98133.97;12210309;19;19940;-84
2024/01/04 02:56:53;;;;;;;;;;;;;;;9.27;100.00;98142.19;12187116;19;19918;-82
2024/01/04 03:00:55;;;;;;;;;;;;;;;9.27;100.00;98144.94;12208245;19;19915;-85
2024/01/04 03:04:57;;;;;;;;;;;;;;;9.32;100.00;98147.66;12208387;19;19970;-84
2024/01/04 03:08:58;;;;;;;;;;;;;;;9.35;100.00;98149.84;12186228;19;20403;-85
2024/01/04 03:13:02;;;;;;;;;;;;;;;9.32;100.00;98151.25;12211775;19;19923;-84
2024/01/04 03:17:04;;;;;;;;;;;;;;;9.30;100.00;98158.13;12212221;19;19917;-84
2024/01/04 03:21:06;;;;;;;;;;;;;;;9.29;100.00;98161.97;12188345;19;19929;-83
2024/01/04 03:25:09;;;;;;;;;;;;;;;9.34;100.00;98164.72;12211421;19;19915;-85
2024/01/04 03:29:11;;;;;;;;;;;;;;;9.38;100.00;98165.78;12200975;19;19939;-84
2024/01/04 03:33:13;;;;;;;;;;;;;;;9.35;100.00;98169.09;12188135;19;20828;-84
2024/01/04 03:37:15;;;;;;;;;;;;;;;9.33;100.00;98169.38;12211275;19;20314;-85
2024/01/04 03:41:17;;;;;;;;;;;;;;;9.35;100.00;98186.41;12212036;19;19923;-85
2024/01/04 03:45:19;;;;;;;;;;;;;;;9.32;100.00;98183.41;12186277;19;20556;-86
2024/01/04 03:49:21;;;;;;;;;;;;;;;9.43;100.00;98190.50;12210922;19;19985;-86
2024/01/04 03:53:23;;;;;;;;;;;;;;;9.43;100.00;98195.16;12226141;19;19958;-85
2024/01/04 03:57:25;;;;;;;;;;;;;;;9.47;100.00;98204.50;12225495;19;19906;-84
2024/01/04 04:01:26;;;;;;;;;;;;;;;9.46;100.00;98211.94;12237519;19;19911;-84
2024/01/04 04:05:28;;;;;;;;;;;;;;;9.53;100.00;98223.44;12207594;19;19918;-83
2024/01/04 04:09:30;;;;;;;;;;;;;;;9.59;100.00;98222.31;12184476;19;19967;-83
2024/01/04 04:13:32;;;;;;;;;;;;;;;9.62;100.00;98214.63;12213727;19;19943;-83
2024/01/04 04:17:34;;;;;;;;;;;;;;;9.59;100.00;98227.81;12260605;19;19925;-85
2024/01/04 04:21:36;;;;;;;;;;;;;;;9.60;100.00;98236.88;12189935;19;19911;-84
2024/01/04 04:25:37;;;;;;;;;;;;;;;9.50;100.00;98245.19;12203101;19;19944;-82
2024/01/04 04:29:40;;;;;;;;;;;;;;;9.54;100.00;98238.84;12216480;19;19926;-85
2024/01/04 04:33:43;;;;;;;;;;;;;;;9.50;100.00;98251.50;12201086;19;19911;-83
2024/01/04 04:37:45;;;;;;;;;;;;;;;9.55;100.00;98242.44;12237950;19;19950;-84
2024/01/04 04:41:47;;;;;;;;;;;;;;;9.45;100.00;98248.78;12223312;19;19918;-85
2024/01/04 04:45:48;;;;;;;;;;;;;;;9.47;100.00;98254.00;12195247;19;19911;-86
2024/01/04 04:49:50;;;;;;;;;;;;;;;9.48;100.00;98250.94;12223181;19;20015;-85
2024/01/04 04:53:52;;;;;;;;;;;;;;;9.46;100.00;98269.69;12192792;19;20149;-85
2024/01/04 04:57:54;;;;;;;;;;;;;;;9.50;100.00;98276.25;12227633;19;19919;-84
2024/01/04 05:01:56;;;;;;;;;;;;;;;9.52;100.00;98276.81;12206725;19;19918;-84
2024/01/04 05:05:57;;;;;;;;;;;;;;;9.52;100.00;98279.56;12184877;19;19953;-84
2024/01/04 05:09:59;;;;;;;;;;;;;;;9.56;100.00;98297.13;12207179;19;19903;-85
2024/01/04 05:14:02;;;;;;;;;;;;;;;9.56;100.00;98302.63;12205388;19;19915;-85
2024/01/04 05:18:04;;;;;;;;;;;;;;;9.55;100.00;98303.75;12183731;19;19932;-85
2024/01/04 05:22:06;;;;;;;;;;;;;;;9.59;100.00;98309.50;12202630;19;19923;-84
2024/01/04 05:26:16;;;;;;;;;;;;;;;9.55;100.00;98320.25;12204858;19;19950;-83
2024/01/04 05:30:18;;;;;;;;;;;;;;;9.59;100.00;98317.75;12181318;19;20408;-85
2024/01/04 05:34:20;;;;;;;;;;;;;;;9.63;100.00;98337.25;12202616;19;19964;-84
2024/01/04 05:38:22;;;;;;;;;;;;;;;9.70;100.00;98337.81;12201105;19;19911;-84
2024/01/04 05:42:24;;;;;;;;;;;;;;;9.64;100.00;98349.91;12180784;19;19984;-87
2024/01/04 05:46:25;;;;;;;;;;;;;;;9.69;100.00;98363.63;12209214;19;20001;-85
2024/01/04 05:50:27;;;;;;;;;;;;;;;9.70;100.00;98368.06;12211946;19;19925;-85
2024/01/04 05:54:29;;;;;;;;;;;;;;;9.69;100.00;98377.41;12240710;19;19915;-85
2024/01/04 05:58:30;;;;;;;;;;;;;;;9.73;100.00;98403.25;12267183;19;19911;-84
2024/01/04 06:02:32;;;;;;;;;;;;;;;9.65;100.00;98398.31;12257580;19;19915;-84
2024/01/04 06:06:34;;;;;;;;;;;;;;;9.70;100.00;98399.13;12188977;19;19918;-84
2024/01/04 06:10:35;;;;;;;;;;;;;;;9.66;100.00;98414.53;12217231;19;19939;-85
2024/01/04 06:14:37;;;;;;;;;;;;;;;9.61;100.00;98422.81;12222510;19;19919;-86
2024/01/04 06:18:39;;;;;;;;;;;;;;;9.65;100.00;98420.31;12195315;19;19914;-87
2024/01/04 06:22:41;;;;;;;;;;;;;;;9.62;100.00;98432.69;12212912;19;19903;-84
2024/01/04 06:26:43;;;;;;;;;;;;;;;9.63;100.00;98436.25;12214052;19;19911;-85
2024/01/04 06:30:44;;;;;;;;;;;;;;;9.65;100.00;98445.06;12188558;19;19946;-84
2024/01/04 06:34:46;;;;;;;;;;;;;;;9.67;100.00;98449.19;12209765;19;19924;-86
2024/01/04 06:38:50;;;;;;;;;;;;;;;9.67;100.00;98453.88;12208939;19;19922;-84
2024/01/04 06:42:55;;;;;;;;;;;;;;;9.65;100.00;98456.91;12191955;19;19923;-84
2024/01/04 06:46:57;;;;;;;;;;;;;;;9.63;100.00;98461.84;12208820;19;20519;-85
2024/01/04 06:50:59;;;;;;;;;;;;;;;9.63;100.00;98469.28;12184227;19;20340;-85
2024/01/04 06:55:01;;;;;;;;;;;;;;;9.61;100.00;98472.31;12205551;19;19918;-84
2024/01/04 06:59:04;;;;;;;;;;;;;;;9.66;100.00;98474.22;12206998;19;19911;-83
2024/01/04 07:03:05;;;;;;;;;;;;;;;9.64;100.00;98482.75;12185681;19;19923;-83
2024/01/04 07:07:07;;;;;;;;;;;;;;;9.59;100.00;98480.81;12206672;19;19907;-85
2024/01/04 07:11:09;;;;;;;;;;;;;;;9.57;100.00;98496.75;12208433;19;19928;-86
2024/01/04 07:15:11;;;;;;;;;;;;;;;9.59;100.00;98511.06;12188190;19;19934;-84
2024/01/04 07:19:12;;;;;;;;;;;;;;;9.58;100.00;98512.19;12206779;19;19938;-84
2024/01/04 07:23:17;;;;;;;;;;;;;;;9.60;100.00;98520.16;12205602;19;19910;-83
2024/01/04 07:27:19;;;;;;;;;;;;;;;9.57;100.00;98528.94;12184713;19;19907;-84
2024/01/04 07:31:21;;;;;;;;;;;;;;;9.58;100.00;98538.88;12203566;19;19911;-83
2024/01/04 07:35:23;;;;;;;;;;;;;;;9.60;100.00;98544.91;12204911;19;19907;-84
2024/01/04 07:39:26;;;;;;;;;;;;;;;9.63;100.00;98547.09;12180659;19;19924;-81
2024/01/04 07:43:28;;;;;;;;;;;;;;;9.71;100.00;98551.25;12206441;19;19927;-82
2024/01/04 07:47:29;;;;;;;;;;;;;;;9.66;100.00;98556.72;12204875;19;20331;-83
2024/01/04 07:51:31;;;;;;;;;;;;;;;9.63;100.00;98557.28;12174880;19;19910;-84
2024/01/04 07:55:33;;;;;;;;;;;;;;;9.66;100.00;98565.81;12209504;19;19970;-83
2024/01/04 07:59:34;;;;;;;;;;;;;;;9.63;100.00;98569.09;12205483;19;19931;-83
2024/01/04 08:03:36;;;;;;;;;;;;;;;9.57;100.00;98581.19;12186995;19;19918;-82
2024/01/04 08:07:38;;;;;;;;;;;;;;;9.52;100.00;98578.47;12203954;19;19915;-81
2024/01/04 08:11:40;;;;;;;;;;;;;;;9.53;100.00;98585.59;12205874;19;19918;-82
2024/01/04 08:15:42;;;;;;;;;;;;;;;9.53;100.00;98589.19;12182781;19;19914;-82
2024/01/04 08:19:43;;;;;;;;;;;;;;;9.48;100.00;98589.16;12206784;19;19907;-82
2024/01/04 08:23:50;;;;;;;;;;;;;;;9.46;100.00;98593.28;12203660;19;19967;-82
2024/01/04 08:27:51;;;;;;;;;;;;;;;9.42;100.00;98600.44;12179474;19;19918;-82
2024/01/04 08:31:53;;;;;;;;;;;;;;;9.35;100.00;98598.78;12202215;19;19978;-82
2024/01/04 08:35:55;;;;;;;;;;;;;;;9.33;100.00;98602.88;12184739;19;19907;-83
2024/01/04 08:39:57;;;;;;;;;;;;;;;9.33;100.00;98608.38;12206895;19;19955;-82
2024/01/04 08:43:58;;;;;;;;;;;;;;;9.35;100.00;98617.19;12202100;19;20703;-82
2024/01/04 08:48:00;;;;;;;;;;;;;;;9.33;100.00;98613.88;12184232;19;20315;-83
2024/01/04 08:52:02;;;;;;;;;;;;;;;9.38;100.00;98624.06;12201349;19;19914;-83
2024/01/04 08:56:08;;;;;;;;;;;;;;;9.46;100.00;98637.28;12201067;19;19921;-85
2024/01/04 09:00:11;;;;;;;;;;;;;;;9.45;100.00;98650.19;12182760;19;20034;-82
2024/01/04 09:04:13;;;;;;;;;;;;;;;9.38;100.00;98651.56;12205168;19;19911;-83
2024/01/04 09:08:15;;;;;;;;;;;;;;;9.35;100.00;98647.44;12197821;19;19918;-82
2024/01/04 09:12:16;;;;;;;;;;;;;;;9.42;100.00;98660.91;12161672;19;19914;-83
2024/01/04 09:16:18;;;;;;;;;;;;;;;9.39;100.00;98656.78;12208911;19;20532;-82
2024/01/04 09:20:20;;;;;;;;;;;;;;;9.42;100.00;98667.25;12207721;19;19931;-82
2024/01/04 09:24:23;;;;;;;;;;;;;;;9.46;100.00;98667.53;12209309;19;19915;-84
2024/01/04 09:28:26;;;;;;;;;;;;;;;9.42;100.00;98675.47;12257783;19;19918;-81
2024/01/04 09:32:29;;;;;;;;;;;;;;;9.42;100.00;98689.22;12259875;19;19919;-83
2024/01/04 09:36:37;;;;;;;;;;;;;;;9.43;100.00;98690.91;12237802;19;19983;-83
2024/01/04 09:40:39;;;;;;;;;;;;;;;9.43;100.00;98690.91;12212670;19;19927;-81
2024/01/04 09:44:41;;;;;;;;;;;;;;;9.40;100.00;98702.44;12210003;19;21148;-80
2024/01/04 09:48:48;;;;;;;;;;;;;;;9.45;100.00;98705.19;12189524;19;19919;-82
2024/01/04 09:52:56;;;;;;;;;;;;;;;9.48;100.00;98701.09;12203737;19;19921;-81
2024/01/04 09:56:59;;;;;;;;;;;;;;;9.55;100.00;98699.75;12183131;19;21331;-83
2024/01/04 10:01:03;;;;;;;;;;;;;;;9.64;100.00;98711.06;12204928;19;19928;-81
2024/01/04 10:05:05;;;;;;;;;;;;;;;9.64;100.00;98713.81;12204451;19;19922;-83
2024/01/04 10:09:16;;;;;;;;;;;;;;;9.78;100.00;98725.09;12180440;19;19918;-82
2024/01/04 10:13:18;;;;;;;;;;;;;;;9.96;100.00;98718.25;12202374;19;19922;-81
2024/01/04 10:17:20;;;;;;;;;;;;;;;10.11;100.00;98720.22;12199809;19;19911;-81
2024/01/04 10:21:22;;;;;;;;;;;;;;;10.12;100.00;98730.13;12173429;19;19906;-82
2024/01/04 10:25:23;;;;;;;;;;;;;;;10.20;100.00;98727.66;12199420;19;20312;-81
2024/01/04 10:29:26;;;;;;;;;;;;;;;10.28;100.00;98726.31;12200008;19;19986;-83
2024/01/04 10:33:29;;;;;;;;;;;;;;;10.31;100.00;98734.03;12176861;19;20346;-81
2024/01/04 10:37:32;;;;;;;;;;;;;;;10.17;100.00;98732.88;12195422;19;19903;-84
2024/01/04 10:41:34;;;;;;;;;;;;;;;10.34;100.00;98732.66;12202784;19;19919;-81
2024/01/04 10:45:35;;;;;;;;;;;;;;;10.43;100.00;98742.84;12179129;19;19907;-81
2024/01/04 10:49:40;;;;;;;;;;;;;;;10.45;100.00;98748.91;12201618;19;19971;-81
2024/01/04 10:53:43;;;;;;;;;;;;;;;10.51;100.00;98738.72;12217998;19;19915;-82
2024/01/04 10:57:45;;;;;;;;;;;;;;;10.60;98.42;98741.75;12196553;19;20734;-83
2024/01/04 11:01:47;;;;;;;;;;;;;;;10.38;100.00;98759.38;12214763;19;19911;-84
2024/01/04 11:05:49;;;;;;;;;;;;;;;10.39;100.00;98752.75;12210822;19;19915;-82
2024/01/04 11:09:51;;;;;;;;;;;;;;;10.33;98.99;98753.88;12193007;19;19926;-82
2024/01/04 11:13:53;;;;;;;;;;;;;;;10.31;100.00;98758.81;12209014;19;20295;-86
2024/01/04 11:18:03;;;;;;;;;;;;;;;10.43;98.79;98767.63;12187490;19;19935;-82
2024/01/04 11:22:14;;;;;;;;;;;;;;;10.42;96.33;98768.75;12209382;19;19911;-82
2024/01/04 11:26:23;;;;;;;;;;;;;;;10.46;95.76;98772.59;12208401;19;19939;-84
2024/01/04 11:30:27;;;;;;;;;;;;;;;10.52;96.41;98772.59;12183453;19;19911;-84
2024/01/04 11:34:29;;;;;;;;;;;;;;;10.53;96.52;98772.34;12208701;19;20477;-82
2024/01/04 11:38:34;;;;;;;;;;;;;;;10.55;94.41;98772.03;12209939;19;19947;-78
2024/01/04 11:42:37;;;;;;;;;;;;;;;10.58;94.65;98766.00;12181951;19;20336;-80
2024/01/04 11:46:41;;;;;;;;;;;;;;;10.70;92.96;98764.59;12208357;19;19910;-82
2024/01/04 11:50:49;;;;;;;;;;;;;;;10.69;93.31;98757.44;12219064;19;19922;-81
2024/01/04 11:54:53;;;;;;;;;;;;;;;10.78;92.48;98765.16;12181719;19;19914;-80
2024/01/04 11:59:04;;;;;;;;;;;;;;;10.61;92.20;98751.66;12202285;19;19922;-84
2024/01/04 12:03:15;;;;;;;;;;;;;;;10.49;90.02;98761.00;12187088;19;19915;-84
2024/01/04 12:07:17;;;;;;;;;;;;;;;10.30;90.37;98764.59;12203002;19;19915;-82
2024/01/04 12:11:20;;;;;;;;;;;;;;;10.47;90.96;98768.75;12207037;19;19939;-83
2024/01/04 12:15:22;;;;;;;;;;;;;;;10.63;88.56;98766.00;12186855;19;19914;-84
2024/01/04 12:19:24;;;;;;;;;;;;;;;10.69;88.29;98762.97;12208652;19;19935;-83
2024/01/04 12:23:27;;;;;;;;;;;;;;;10.67;85.81;98759.63;12206889;19;19919;-82
2024/01/04 12:27:29;;;;;;;;;;;;;;;10.77;85.61;98764.34;12186332;19;20519;-83
2024/01/04 12:31:31;;;;;;;;;;;;;;;10.73;83.57;98769.56;12206938;19;19964;-83
2024/01/04 12:35:33;;;;;;;;;;;;;;;10.70;85.96;98769.28;12209324;19;19993;-82
2024/01/04 12:39:35;;;;;;;;;;;;;;;10.60;87.33;98780.31;12189104;19;19920;-82
2024/01/04 12:43:37;;;;;;;;;;;;;;;10.55;87.98;98772.03;12206773;19;19927;-83
2024/01/04 12:47:39;;;;;;;;;;;;;;;10.44;86.41;98776.72;12208367;19;19922;-82
2024/01/04 12:51:42;;;;;;;;;;;;;;;10.47;87.61;98768.75;12183708;19;19911;-83
2024/01/04 12:55:44;;;;;;;;;;;;;;;10.48;87.42;98770.41;12205801;19;19910;-82
2024/01/04 12:59:46;;;;;;;;;;;;;;;10.45;87.83;98789.41;12204676;19;19923;-83
2024/01/04 13:03:52;;;;;;;;;;;;;;;10.45;88.33;98781.13;12185861;19;19907;-83
2024/01/04 13:07:54;;;;;;;;;;;;;;;10.52;87.58;98784.44;12204088;19;20371;-82
2024/01/04 13:11:55;;;;;;;;;;;;;;;10.56;88.33;98784.72;12215536;19;19915;-82
2024/01/04 13:16:07;;;;;;;;;;;;;;;10.71;87.67;98798.50;12242133;19;19915;-84
2024/01/04 13:20:12;;;;;;;;;;;;;;;10.82;84.36;98780.84;12252737;19;19954;-80
2024/01/04 13:24:14;;;;;;;;;;;;;;;11.06;81.44;98786.59;12238506;19;19926;-83
2024/01/04 13:28:16;;;;;;;;;;;;;;;10.98;79.96;98792.72;12255592;19;19951;-86
2024/01/04 13:32:18;;;;;;;;;;;;;;;10.88;81.00;98801.78;12229839;19;19918;-81
2024/01/04 13:36:19;;;;;;;;;;;;;;;10.84;82.41;98797.94;12185126;19;19911;-84
2024/01/04 13:40:21;;;;;;;;;;;;;;;10.95;82.08;98798.78;12206318;19;19911;-82
2024/01/04 13:44:24;;;;;;;;;;;;;;;10.93;79.37;98795.47;12207175;19;19922;-82
2024/01/04 13:48:30;;;;;;;;;;;;;;;10.78;78.64;98812.81;12188262;19;19923;-82
2024/01/04 13:52:33;;;;;;;;;;;;;;;10.58;77.05;98810.06;12212446;19;19929;-82
2024/01/04 13:56:35;;;;;;;;;;;;;;;10.62;75.62;98817.50;12209117;19;19914;-83
2024/01/04 14:00:37;;;;;;;;;;;;;;;10.51;75.97;98821.34;12185004;19;20001;-83
2024/01/04 14:04:40;;;;;;;;;;;;;;;10.32;77.07;98829.31;12204816;19;19915;-82
2024/01/04 14:08:45;;;;;;;;;;;;;;;10.08;77.64;98828.09;12204615;19;19915;-81
2024/01/04 14:12:48;;;;;;;;;;;;;;;9.92;79.68;98825.31;12181902;19;20256;-81
2024/01/04 14:16:50;;;;;;;;;;;;;;;9.78;81.67;98826.91;12201638;19;19915;-82
2024/01/04 14:20:52;;;;;;;;;;;;;;;9.55;84.20;98826.25;12204537;19;19926;-81
2024/01/04 14:24:55;;;;;;;;;;;;;;;9.56;85.66;98829.81;12180515;19;19903;-81
2024/01/04 14:28:57;;;;;;;;;;;;;;;9.56;85.44;98838.91;12212492;19;19982;-82
2024/01/04 14:33:00;;;;;;;;;;;;;;;9.43;86.10;98846.78;12189004;19;19926;-81
2024/01/04 14:37:03;;;;;;;;;;;;;;;9.46;86.25;98854.50;12208685;19;19910;-81
2024/01/04 14:41:08;;;;;;;;;;;;;;;9.46;86.02;98849.84;12212547;19;19910;-83
2024/01/04 14:45:16;;;;;;;;;;;;;;;9.52;85.83;98864.47;12189974;19;19907;-82
2024/01/04 14:49:18;;;;;;;;;;;;;;;9.79;85.71;98878.09;12207073;19;20323;-81
2024/01/04 14:53:20;;;;;;;;;;;;;;;9.91;85.55;98873.19;12208809;19;20320;-83
2024/01/04 14:57:23;;;;;;;;;;;;;;;10.02;85.84;98882.31;12186469;19;19911;-82
2024/01/04 15:01:25;;;;;;;;;;;;;;;10.08;85.90;98877.66;12207957;19;20358;-82
2024/01/04 15:05:27;;;;;;;;;;;;;;;10.09;86.25;98868.31;12210309;19;19915;-83
2024/01/04 15:09:29;;;;;;;;;;;;;;;9.97;87.14;98872.13;12186851;19;19956;-85
2024/01/04 15:13:30;;;;;;;;;;;;;;;9.92;88.11;98879.50;12212146;19;19915;-84
2024/01/04 15:17:32;;;;;;;;;;;;;;;9.83;88.92;98870.94;12212064;19;19910;-82
2024/01/04 15:21:34;;;;;;;;;;;;;;;9.75;89.88;98876.94;12180037;19;19914;-82
2024/01/04 15:25:37;;;;;;;;;;;;;;;9.66;90.74;98881.31;12200722;19;19919;-83
2024/01/04 15:29:39;;;;;;;;;;;;;;;9.58;91.52;98874.41;12204041;19;19914;-83
2024/01/04 15:33:41;;;;;;;;;;;;;;;9.49;92.69;98874.06;12183020;19;19928;-81
2024/01/04 15:37:43;;;;;;;;;;;;;;;9.43;92.73;98871.53;12202227;19;19915;-82
2024/01/04 15:41:45;;;;;;;;;;;;;;;9.22;93.89;98876.06;12210096;19;19911;-83
2024/01/04 15:45:48;;;;;;;;;;;;;;;8.99;95.90;98878.09;12181984;19;19918;-83
2024/01/04 15:49:50;;;;;;;;;;;;;;;8.77;98.87;98880.09;12204823;19;19915;-85
2024/01/04 15:53:53;;;;;;;;;;;;;;;8.57;100.00;98873.34;12198081;19;19911;-84
2024/01/04 15:57:59;;;;;;;;;;;;;;;8.41;100.00;98882.50;12178543;19;19986;-85
2024/01/04 16:02:00;;;;;;;;;;;;;;;8.25;100.00;98886.13;12203774;19;19918;-84
2024/01/04 16:06:03;;;;;;;;;;;;;;;8.16;100.00;98883.03;12182315;19;19914;-84
2024/01/04 16:10:06;;;;;;;;;;;;;;;8.10;100.00;98882.13;12204480;19;19914;-83
2024/01/04 16:14:08;;;;;;;;;;;;;;;8.14;100.00;98886.00;12202123;19;19922;-85
2024/01/04 16:18:10;;;;;;;;;;;;;;;8.17;100.00;98882.75;12180501;19;19907;-84
2024/01/04 16:22:12;;;;;;;;;;;;;;;8.23;100.00;98881.72;12197862;19;19929;-85
2024/01/04 16:26:15;;;;;;;;;;;;;;;8.28;100.00;98888.38;12198969;19;19919;-86
2024/01/04 16:30:18;;;;;;;;;;;;;;;8.30;100.00;98891.66;12179354;19;20776;-83
2024/01/04 16:34:20;;;;;;;;;;;;;;;8.38;100.00;98880.22;12204203;19;19935;-84
2024/01/04 16:38:23;;;;;;;;;;;;;;;8.41;100.00;98890.72;12212847;19;20200;-86
2024/01/04 16:42:25;;;;;;;;;;;;;;;8.46;100.00;98881.72;12182252;19;20018;-83
2024/01/04 16:46:27;;;;;;;;;;;;;;;8.52;100.00;98877.94;12207847;19;19927;-84
2024/01/04 16:50:28;;;;;;;;;;;;;;;8.54;100.00;98876.59;12200851;19;19915;-83
2024/01/04 16:54:32;;;;;;;;;;;;;;;8.53;100.00;98868.63;12182696;19;19915;-83
2024/01/04 16:58:34;;;;;;;;;;;;;;;8.55;100.00;98867.28;12201849;19;20313;-82
2024/01/04 17:02:35;;;;;;;;;;;;;;;8.59;100.00;98879.38;12203638;19;19918;-80
2024/01/04 17:06:37;;;;;;;;;;;;;;;8.60;100.00;98880.22;12180322;19;19911;-83
2024/01/04 17:10:40;;;;;;;;;;;;;;;8.61;100.00;98868.97;12200891;19;19917;-80
2024/01/04 17:14:42;;;;;;;;;;;;;;;8.56;100.00;98873.59;12200350;19;19914;-82
2024/01/04 17:18:44;;;;;;;;;;;;;;;8.39;100.00;98870.97;12187791;19;19935;-83
2024/01/04 17:22:46;;;;;;;;;;;;;;;8.29;100.00;98873.56;12204126;19;20353;-81
2024/01/04 17:26:47;;;;;;;;;;;;;;;8.32;100.00;98867.53;12204297;19;19918;-81
2024/01/04 17:30:51;;;;;;;;;;;;;;;8.35;100.00;98859.63;12174722;19;19918;-82
2024/01/04 17:34:54;;;;;;;;;;;;;;;8.41;100.00;98858.59;12201120;19;19978;-82
2024/01/04 17:38:55;;;;;;;;;;;;;;;8.43;100.00;98855.63;12178834;19;19994;-81
2024/01/04 17:42:57;;;;;;;;;;;;;;;8.45;100.00;98864.44;12196432;19;19922;-81
2024/01/04 17:46:59;;;;;;;;;;;;;;;8.46;100.00;98863.34;12196595;19;19907;-82
2024/01/04 17:51:01;;;;;;;;;;;;;;;8.50;100.00;98866.38;12173554;19;20672;-80
2024/01/04 17:55:05;;;;;;;;;;;;;;;8.51;100.00;98879.06;12192344;19;20316;-83
2024/01/04 17:59:07;;;;;;;;;;;;;;;8.51;100.00;98876.31;12195441;19;19931;-80
2024/01/04 18:03:09;;;;;;;;;;;;;;;8.46;100.00;98870.75;12183723;19;19920;-80
2024/01/04 18:07:12;;;;;;;;;;;;;;;8.29;100.00;98879.88;12205189;19;19919;-81
2024/01/04 18:11:14;;;;;;;;;;;;;;;8.19;100.00;98880.59;12222149;19;19926;-81
2024/01/04 18:15:17;;;;;;;;;;;;;;;8.21;100.00;98877.59;12201581;19;20550;-82
2024/01/04 18:19:25;;;;;;;;;;;;;;;8.17;100.00;98871.78;12219724;19;19943;-82
2024/01/04 18:23:28;;;;;;;;;;;;;;;8.13;100.00;98881.63;12197675;19;20640;-78
2024/01/04 18:27:33;;;;;;;;;;;;;;;8.10;100.00;98893.09;12194366;19;19911;-79
2024/01/04 18:31:36;;;;;;;;;;;;;;;8.15;100.00;98884.94;12233523;19;19910;-79
2024/01/04 18:35:42;;;;;;;;;;;;;;;8.28;100.00;98885.63;12252479;19;19927;-82
2024/01/04 18:39:45;;;;;;;;;;;;;;;8.36;100.00;98880.50;12208257;19;19914;-81
2024/01/04 18:43:46;;;;;;;;;;;;;;;8.31;100.00;98882.38;12215354;19;19922;-79
2024/01/04 18:47:52;;;;;;;;;;;;;;;8.31;100.00;98879.63;12197489;19;19927;-81
2024/01/04 18:51:59;;;;;;;;;;;;;;;8.28;100.00;98882.88;12219667;19;20680;-81
2024/01/04 18:56:03;;;;;;;;;;;;;;;8.22;100.00;98882.81;12212048;19;19922;-80
2024/01/04 19:00:06;;;;;;;;;;;;;;;8.12;100.00;98887.34;12174176;19;19907;-81
2024/01/04 19:04:07;;;;;;;;;;;;;;;7.97;100.00;98882.50;12210246;19;19975;-80
2024/01/04 19:08:18;;;;;;;;;;;;;;;7.85;100.00;98882.66;12204230;19;20568;-83
2024/01/04 19:12:19;;;;;;;;;;;;;;;7.79;100.00;98885.56;12183845;19;20727;-79
2024/01/04 19:16:25;;;;;;;;;;;;;;;7.79;100.00;98877.34;12220042;19;19919;-82
2024/01/04 19:20:28;;;;;;;;;;;;;;;7.83;100.00;98876.59;12201513;19;19922;-84
2024/01/04 19:24:37;;;;;;;;;;;;;;;7.93;100.00;98873.13;12193265;19;19954;-84
2024/01/04 19:28:41;;;;;;;;;;;;;;;7.97;100.00;98866.03;12211976;19;19915;-82
2024/01/04 19:32:43;;;;;;;;;;;;;;;7.94;100.00;98866.56;12211407;19;19914;-82
2024/01/04 19:36:45;;;;;;;;;;;;;;;7.83;100.00;98865.63;12210843;19;19915;-83
2024/01/04 19:40:47;;;;;;;;;;;;;;;7.79;100.00;98860.88;12205204;19;19911;-82
2024/01/04 19:44:48;;;;;;;;;;;;;;;7.74;100.00;98854.25;12189422;19;19914;-82
2024/01/04 19:48:51;;;;;;;;;;;;;;;7.76;100.00;98854.00;12216886;19;19910;-83
2024/01/04 19:52:53;;;;;;;;;;;;;;;7.82;100.00;98838.44;12205204;19;20394;-81
2024/01/04 19:56:55;;;;;;;;;;;;;;;7.93;100.00;98840.22;12193701;19;19934;-82
2024/01/04 20:00:57;;;;;;;;;;;;;;;8.10;100.00;98831.91;12206509;19;20003;-81
2024/01/04 20:05:01;;;;;;;;;;;;;;;8.21;100.00;98829.03;12228977;19;19934;-81
2024/01/04 20:09:04;;;;;;;;;;;;;;;8.32;100.00;98834.59;12200973;19;20522;-80
2024/01/04 20:13:05;;;;;;;;;;;;;;;8.43;100.00;98828.16;12210170;19;19911;-81
2024/01/04 20:17:07;;;;;;;;;;;;;;;8.55;100.00;98839.81;12217178;19;19918;-81
2024/01/04 20:21:09;;;;;;;;;;;;;;;8.65;100.00;98839.88;12201719;19;20005;-82
2024/01/04 20:25:11;;;;;;;;;;;;;;;8.79;100.00;98836.72;12205694;19;19982;-80
2024/01/04 20:29:15;;;;;;;;;;;;;;;8.89;100.00;98825.81;12201602;19;19922;-82
2024/01/04 20:33:17;;;;;;;;;;;;;;;8.95;100.00;98818.44;12176323;19;19907;-83
2024/01/04 20:37:19;;;;;;;;;;;;;;;8.99;100.00;98812.16;12201266;19;20042;-81
2024/01/04 20:41:21;;;;;;;;;;;;;;;9.07;100.00;98808.06;12206929;19;20537;-81
2024/01/04 20:45:22;;;;;;;;;;;;;;;9.15;100.00;98804.00;12180038;19;19911;-84
2024/01/04 20:49:24;;;;;;;;;;;;;;;9.17;100.00;98801.84;12199862;19;19935;-85